sensor_id;sensor_type;location;lat;lon;timestamp;P1;durP1;ratioP1;P2;durP2;ratioP2
72319;SDS011;60269;52.502;16.732;2023-06-22T00:00:14;29.87;;;15.40;;
72319;SDS011;60269;52.502;16.732;2023-06-22T00:04:07;26.43;;;15.17;;
72319;SDS011;60269;52.502;16.732;2023-06-22T00:07:39;31.38;;;15.55;;
72319;SDS011;60269;52.502;16.732;2023-06-22T00:11:11;29.02;;;15.35;;
72319;SDS011;60269;52.502;16.732;2023-06-22T00:14:43;22.70;;;14.20;;
72319;SDS011;60269;52.502;16.732;2023-06-22T00:18:15;20.90;;;12.43;;
72319;SDS011;60269;52.502;16.732;2023-06-22T00:21:47;23.88;;;14.65;;
72319;SDS011;60269;52.502;16.732;2023-06-22T00:25:24;25.73;;;13.90;;
72319;SDS011;60269;52.502;16.732;2023-06-22T00:28:56;20.87;;;13.60;;
72319;SDS011;60269;52.502;16.732;2023-06-22T00:32:28;23.87;;;12.90;;
72319;SDS011;60269;52.502;16.732;2023-06-22T00:36:00;23.95;;;13.75;;
72319;SDS011;60269;52.502;16.732;2023-06-22T00:39:34;23.95;;;13.50;;
72319;SDS011;60269;52.502;16.732;2023-06-22T00:43:06;24.97;;;13.47;;
72319;SDS011;60269;52.502;16.732;2023-06-22T00:46:38;25.93;;;14.00;;
72319;SDS011;60269;52.502;16.732;2023-06-22T00:50:10;24.55;;;14.63;;
72319;SDS011;60269;52.502;16.732;2023-06-22T00:53:53;24.08;;;13.80;;
72319;SDS011;60269;52.502;16.732;2023-06-22T00:57:26;24.07;;;13.30;;
72319;SDS011;60269;52.502;16.732;2023-06-22T01:00:59;24.10;;;14.10;;
72319;SDS011;60269;52.502;16.732;2023-06-22T01:04:36;22.00;;;12.43;;
72319;SDS011;60269;52.502;16.732;2023-06-22T01:08:16;20.13;;;12.15;;
72319;SDS011;60269;52.502;16.732;2023-06-22T01:11:57;22.40;;;12.40;;
72319;SDS011;60269;52.502;16.732;2023-06-22T01:15:55;23.60;;;14.33;;
72319;SDS011;60269;52.502;16.732;2023-06-22T01:19:45;26.25;;;15.20;;
72319;SDS011;60269;52.502;16.732;2023-06-22T01:23:29;23.95;;;13.32;;
72319;SDS011;60269;52.502;16.732;2023-06-22T01:30:58;28.63;;;14.30;;
72319;SDS011;60269;52.502;16.732;2023-06-22T01:34:37;21.20;;;13.10;;
72319;SDS011;60269;52.502;16.732;2023-06-22T01:38:12;23.88;;;13.90;;
72319;SDS011;60269;52.502;16.732;2023-06-22T01:41:45;23.47;;;13.57;;
72319;SDS011;60269;52.502;16.732;2023-06-22T01:45:18;23.17;;;13.60;;
72319;SDS011;60269;52.502;16.732;2023-06-22T01:48:51;22.75;;;12.95;;
72319;SDS011;60269;52.502;16.732;2023-06-22T01:52:25;18.83;;;11.30;;
72319;SDS011;60269;52.502;16.732;2023-06-22T01:55:57;19.40;;;12.03;;
72319;SDS011;60269;52.502;16.732;2023-06-22T01:59:44;22.23;;;12.87;;
72319;SDS011;60269;52.502;16.732;2023-06-22T02:03:22;19.92;;;12.40;;
72319;SDS011;60269;52.502;16.732;2023-06-22T02:07:09;21.30;;;12.43;;
72319;SDS011;60269;52.502;16.732;2023-06-22T02:10:45;20.80;;;12.70;;
72319;SDS011;60269;52.502;16.732;2023-06-22T02:14:20;21.30;;;13.47;;
72319;SDS011;60269;52.502;16.732;2023-06-22T02:17:53;24.45;;;14.15;;
72319;SDS011;60269;52.502;16.732;2023-06-22T02:21:25;23.55;;;13.68;;
72319;SDS011;60269;52.502;16.732;2023-06-22T02:24:57;24.90;;;13.67;;
72319;SDS011;60269;52.502;16.732;2023-06-22T02:28:30;22.63;;;14.17;;
72319;SDS011;60269;52.502;16.732;2023-06-22T02:32:02;21.40;;;12.80;;
72319;SDS011;60269;52.502;16.732;2023-06-22T02:35:34;21.02;;;12.35;;
72319;SDS011;60269;52.502;16.732;2023-06-22T02:39:07;22.07;;;12.97;;
72319;SDS011;60269;52.502;16.732;2023-06-22T02:42:39;19.93;;;12.33;;
72319;SDS011;60269;52.502;16.732;2023-06-22T02:46:11;26.90;;;11.93;;
72319;SDS011;60269;52.502;16.732;2023-06-22T02:49:45;22.60;;;12.60;;
72319;SDS011;60269;52.502;16.732;2023-06-22T02:53:18;21.47;;;13.60;;
72319;SDS011;60269;52.502;16.732;2023-06-22T02:56:51;24.03;;;12.27;;
72319;SDS011;60269;52.502;16.732;2023-06-22T03:00:22;21.48;;;13.13;;
72319;SDS011;60269;52.502;16.732;2023-06-22T03:03:55;21.15;;;12.98;;
72319;SDS011;60269;52.502;16.732;2023-06-22T03:07:27;25.53;;;13.53;;
72319;SDS011;60269;52.502;16.732;2023-06-22T03:11:02;22.30;;;12.40;;
72319;SDS011;60269;52.502;16.732;2023-06-22T03:14:34;20.42;;;12.38;;
72319;SDS011;60269;52.502;16.732;2023-06-22T03:18:07;22.48;;;13.50;;
72319;SDS011;60269;52.502;16.732;2023-06-22T03:21:39;26.83;;;14.97;;
72319;SDS011;60269;52.502;16.732;2023-06-22T03:25:12;27.33;;;14.93;;
72319;SDS011;60269;52.502;16.732;2023-06-22T03:28:46;26.90;;;14.68;;
72319;SDS011;60269;52.502;16.732;2023-06-22T03:32:18;27.92;;;15.98;;
72319;SDS011;60269;52.502;16.732;2023-06-22T03:35:50;25.47;;;15.40;;
72319;SDS011;60269;52.502;16.732;2023-06-22T03:39:23;25.90;;;15.60;;
72319;SDS011;60269;52.502;16.732;2023-06-22T03:42:55;29.52;;;15.70;;
72319;SDS011;60269;52.502;16.732;2023-06-22T03:46:27;28.38;;;16.10;;
72319;SDS011;60269;52.502;16.732;2023-06-22T03:49:59;28.73;;;16.43;;
72319;SDS011;60269;52.502;16.732;2023-06-22T03:53:32;27.43;;;16.37;;
72319;SDS011;60269;52.502;16.732;2023-06-22T03:57:04;28.30;;;16.10;;
72319;SDS011;60269;52.502;16.732;2023-06-22T04:00:36;27.70;;;15.65;;
72319;SDS011;60269;52.502;16.732;2023-06-22T04:04:08;24.90;;;15.60;;
72319;SDS011;60269;52.502;16.732;2023-06-22T04:07:40;26.93;;;15.80;;
72319;SDS011;60269;52.502;16.732;2023-06-22T04:11:13;26.67;;;15.85;;
72319;SDS011;60269;52.502;16.732;2023-06-22T04:14:45;25.00;;;13.82;;
72319;SDS011;60269;52.502;16.732;2023-06-22T04:18:17;22.53;;;14.10;;
72319;SDS011;60269;52.502;16.732;2023-06-22T04:21:49;20.27;;;13.00;;
72319;SDS011;60269;52.502;16.732;2023-06-22T04:25:21;26.83;;;14.65;;
72319;SDS011;60269;52.502;16.732;2023-06-22T04:28:53;24.33;;;12.57;;
72319;SDS011;60269;52.502;16.732;2023-06-22T04:32:27;19.93;;;11.57;;
72319;SDS011;60269;52.502;16.732;2023-06-22T04:35:59;19.10;;;11.87;;
72319;SDS011;60269;52.502;16.732;2023-06-22T04:39:35;18.85;;;10.85;;
72319;SDS011;60269;52.502;16.732;2023-06-22T04:43:07;18.05;;;10.57;;
72319;SDS011;60269;52.502;16.732;2023-06-22T04:46:41;18.20;;;10.77;;
72319;SDS011;60269;52.502;16.732;2023-06-22T04:50:15;17.77;;;9.77;;
72319;SDS011;60269;52.502;16.732;2023-06-22T04:53:49;18.45;;;9.00;;
72319;SDS011;60269;52.502;16.732;2023-06-22T04:57:21;14.95;;;8.50;;
72319;SDS011;60269;52.502;16.732;2023-06-22T05:01:06;14.70;;;8.13;;
72319;SDS011;60269;52.502;16.732;2023-06-22T05:04:40;15.00;;;7.83;;
72319;SDS011;60269;52.502;16.732;2023-06-22T05:08:13;14.23;;;7.20;;
72319;SDS011;60269;52.502;16.732;2023-06-22T05:11:45;13.52;;;6.90;;
72319;SDS011;60269;52.502;16.732;2023-06-22T05:15:19;16.47;;;6.37;;
72319;SDS011;60269;52.502;16.732;2023-06-22T05:18:51;10.30;;;4.97;;
72319;SDS011;60269;52.502;16.732;2023-06-22T05:22:25;12.73;;;5.40;;
72319;SDS011;60269;52.502;16.732;2023-06-22T05:25:57;8.15;;;4.03;;
72319;SDS011;60269;52.502;16.732;2023-06-22T05:29:30;10.20;;;3.90;;
72319;SDS011;60269;52.502;16.732;2023-06-22T05:33:02;9.53;;;4.57;;
72319;SDS011;60269;52.502;16.732;2023-06-22T05:36:34;9.50;;;4.40;;
72319;SDS011;60269;52.502;16.732;2023-06-22T05:40:06;9.27;;;4.68;;
72319;SDS011;60269;52.502;16.732;2023-06-22T05:43:38;8.80;;;3.37;;
72319;SDS011;60269;52.502;16.732;2023-06-22T05:47:10;12.13;;;3.13;;
72319;SDS011;60269;52.502;16.732;2023-06-22T05:50:43;7.70;;;3.20;;
72319;SDS011;60269;52.502;16.732;2023-06-22T05:54:15;8.02;;;3.17;;
72319;SDS011;60269;52.502;16.732;2023-06-22T05:57:49;10.70;;;3.43;;
72319;SDS011;60269;52.502;16.732;2023-06-22T06:01:21;8.57;;;3.30;;
72319;SDS011;60269;52.502;16.732;2023-06-22T06:04:54;6.88;;;2.88;;
72319;SDS011;60269;52.502;16.732;2023-06-22T06:08:26;6.30;;;2.78;;
72319;SDS011;60269;52.502;16.732;2023-06-22T06:11:58;8.77;;;3.07;;
72319;SDS011;60269;52.502;16.732;2023-06-22T06:15:30;7.00;;;2.60;;
72319;SDS011;60269;52.502;16.732;2023-06-22T06:19:03;6.57;;;2.72;;
72319;SDS011;60269;52.502;16.732;2023-06-22T06:22:36;6.57;;;2.70;;
72319;SDS011;60269;52.502;16.732;2023-06-22T06:26:08;6.13;;;3.07;;
72319;SDS011;60269;52.502;16.732;2023-06-22T06:29:40;7.47;;;2.90;;
72319;SDS011;60269;52.502;16.732;2023-06-22T06:33:12;7.45;;;3.30;;
72319;SDS011;60269;52.502;16.732;2023-06-22T06:36:45;10.38;;;3.63;;
72319;SDS011;60269;52.502;16.732;2023-06-22T06:40:17;7.85;;;3.13;;
72319;SDS011;60269;52.502;16.732;2023-06-22T06:43:49;5.83;;;2.90;;
72319;SDS011;60269;52.502;16.732;2023-06-22T06:47:21;8.50;;;3.13;;
72319;SDS011;60269;52.502;16.732;2023-06-22T06:50:55;6.95;;;2.88;;
72319;SDS011;60269;52.502;16.732;2023-06-22T06:54:30;8.67;;;3.20;;
72319;SDS011;60269;52.502;16.732;2023-06-22T06:58:02;9.13;;;3.73;;
72319;SDS011;60269;52.502;16.732;2023-06-22T07:01:39;9.05;;;3.08;;
72319;SDS011;60269;52.502;16.732;2023-06-22T07:05:16;7.35;;;2.83;;
72319;SDS011;60269;52.502;16.732;2023-06-22T07:08:48;7.50;;;3.40;;
72319;SDS011;60269;52.502;16.732;2023-06-22T07:12:21;10.33;;;3.40;;
72319;SDS011;60269;52.502;16.732;2023-06-22T07:15:52;7.47;;;3.47;;
72319;SDS011;60269;52.502;16.732;2023-06-22T07:19:25;7.40;;;3.03;;
72319;SDS011;60269;52.502;16.732;2023-06-22T07:22:58;8.33;;;3.87;;
72319;SDS011;60269;52.502;16.732;2023-06-22T07:26:32;8.63;;;3.27;;
72319;SDS011;60269;52.502;16.732;2023-06-22T07:30:05;7.82;;;2.92;;
72319;SDS011;60269;52.502;16.732;2023-06-22T07:33:38;8.57;;;3.58;;
72319;SDS011;60269;52.502;16.732;2023-06-22T07:37:13;6.43;;;2.43;;
72319;SDS011;60269;52.502;16.732;2023-06-22T07:40:45;6.33;;;2.80;;
72319;SDS011;60269;52.502;16.732;2023-06-22T07:44:19;6.97;;;3.03;;
72319;SDS011;60269;52.502;16.732;2023-06-22T07:47:51;6.13;;;2.42;;
72319;SDS011;60269;52.502;16.732;2023-06-22T07:51:23;5.83;;;2.57;;
72319;SDS011;60269;52.502;16.732;2023-06-22T07:54:55;6.13;;;2.65;;
72319;SDS011;60269;52.502;16.732;2023-06-22T07:58:28;6.95;;;3.20;;
72319;SDS011;60269;52.502;16.732;2023-06-22T08:02:00;7.47;;;2.95;;
72319;SDS011;60269;52.502;16.732;2023-06-22T08:05:36;7.80;;;2.93;;
72319;SDS011;60269;52.502;16.732;2023-06-22T08:09:08;6.80;;;2.60;;
72319;SDS011;60269;52.502;16.732;2023-06-22T08:12:40;6.60;;;3.30;;
72319;SDS011;60269;52.502;16.732;2023-06-22T08:16:13;6.57;;;3.37;;
72319;SDS011;60269;52.502;16.732;2023-06-22T08:19:45;6.95;;;2.70;;
72319;SDS011;60269;52.502;16.732;2023-06-22T08:23:17;5.47;;;2.38;;
72319;SDS011;60269;52.502;16.732;2023-06-22T08:26:51;9.63;;;3.17;;
72319;SDS011;60269;52.502;16.732;2023-06-22T08:30:23;5.87;;;2.73;;
72319;SDS011;60269;52.502;16.732;2023-06-22T08:33:56;5.75;;;3.17;;
72319;SDS011;60269;52.502;16.732;2023-06-22T08:37:28;7.05;;;3.28;;
72319;SDS011;60269;52.502;16.732;2023-06-22T08:41:03;8.13;;;2.80;;
72319;SDS011;60269;52.502;16.732;2023-06-22T08:44:36;7.22;;;3.58;;
72319;SDS011;60269;52.502;16.732;2023-06-22T08:48:08;8.48;;;3.38;;
72319;SDS011;60269;52.502;16.732;2023-06-22T08:51:40;6.05;;;3.42;;
72319;SDS011;60269;52.502;16.732;2023-06-22T08:55:12;6.37;;;2.97;;
72319;SDS011;60269;52.502;16.732;2023-06-22T08:58:44;5.78;;;3.38;;
72319;SDS011;60269;52.502;16.732;2023-06-22T09:02:16;7.88;;;3.60;;
72319;SDS011;60269;52.502;16.732;2023-06-22T09:05:48;5.27;;;3.07;;
72319;SDS011;60269;52.502;16.732;2023-06-22T09:09:21;6.15;;;3.42;;
72319;SDS011;60269;52.502;16.732;2023-06-22T09:12:53;5.28;;;2.72;;
72319;SDS011;60269;52.502;16.732;2023-06-22T09:16:25;6.03;;;3.15;;
72319;SDS011;60269;52.502;16.732;2023-06-22T09:19:57;6.40;;;2.90;;
72319;SDS011;60269;52.502;16.732;2023-06-22T09:23:30;7.07;;;3.20;;
72319;SDS011;60269;52.502;16.732;2023-06-22T09:27:02;5.25;;;3.00;;
72319;SDS011;60269;52.502;16.732;2023-06-22T09:30:35;6.23;;;3.00;;
72319;SDS011;60269;52.502;16.732;2023-06-22T09:34:07;6.85;;;3.28;;
72319;SDS011;60269;52.502;16.732;2023-06-22T09:37:40;5.70;;;2.90;;
72319;SDS011;60269;52.502;16.732;2023-06-22T09:41:12;5.33;;;2.90;;
72319;SDS011;60269;52.502;16.732;2023-06-22T09:44:44;5.63;;;2.78;;
72319;SDS011;60269;52.502;16.732;2023-06-22T09:48:16;5.30;;;2.92;;
72319;SDS011;60269;52.502;16.732;2023-06-22T09:51:49;5.28;;;2.35;;
72319;SDS011;60269;52.502;16.732;2023-06-22T09:55:22;8.40;;;3.13;;
72319;SDS011;60269;52.502;16.732;2023-06-22T09:58:55;5.78;;;2.92;;
72319;SDS011;60269;52.502;16.732;2023-06-22T10:02:44;5.63;;;3.22;;
72319;SDS011;60269;52.502;16.732;2023-06-22T10:06:17;6.60;;;3.47;;
72319;SDS011;60269;52.502;16.732;2023-06-22T10:09:49;7.07;;;3.70;;
72319;SDS011;60269;52.502;16.732;2023-06-22T10:13:21;7.03;;;3.50;;
72319;SDS011;60269;52.502;16.732;2023-06-22T10:16:53;6.03;;;3.70;;
72319;SDS011;60269;52.502;16.732;2023-06-22T10:20:27;6.15;;;3.35;;
72319;SDS011;60269;52.502;16.732;2023-06-22T10:23:59;6.43;;;3.35;;
72319;SDS011;60269;52.502;16.732;2023-06-22T10:27:38;6.60;;;3.47;;
72319;SDS011;60269;52.502;16.732;2023-06-22T10:31:13;5.93;;;3.60;;
72319;SDS011;60269;52.502;16.732;2023-06-22T10:34:47;5.95;;;3.10;;
72319;SDS011;60269;52.502;16.732;2023-06-22T10:38:19;8.85;;;3.80;;
72319;SDS011;60269;52.502;16.732;2023-06-22T10:41:51;5.73;;;4.00;;
72319;SDS011;60269;52.502;16.732;2023-06-22T10:45:23;6.40;;;4.15;;
72319;SDS011;60269;52.502;16.732;2023-06-22T10:48:55;6.22;;;3.70;;
72319;SDS011;60269;52.502;16.732;2023-06-22T10:52:30;6.85;;;3.58;;
72319;SDS011;60269;52.502;16.732;2023-06-22T10:56:02;5.83;;;3.47;;
72319;SDS011;60269;52.502;16.732;2023-06-22T10:59:34;5.90;;;3.72;;
72319;SDS011;60269;52.502;16.732;2023-06-22T11:03:06;6.65;;;3.97;;
72319;SDS011;60269;52.502;16.732;2023-06-22T11:06:39;6.77;;;4.00;;
72319;SDS011;60269;52.502;16.732;2023-06-22T11:10:12;7.15;;;4.47;;
72319;SDS011;60269;52.502;16.732;2023-06-22T11:13:45;6.25;;;3.60;;
72319;SDS011;60269;52.502;16.732;2023-06-22T11:17:17;6.73;;;4.83;;
72319;SDS011;60269;52.502;16.732;2023-06-22T11:20:50;6.18;;;4.22;;
72319;SDS011;60269;52.502;16.732;2023-06-22T11:24:24;11.27;;;7.15;;
72319;SDS011;60269;52.502;16.732;2023-06-22T11:27:56;7.07;;;5.13;;
72319;SDS011;60269;52.502;16.732;2023-06-22T11:31:28;8.10;;;5.40;;
72319;SDS011;60269;52.502;16.732;2023-06-22T11:35:00;7.78;;;4.47;;
72319;SDS011;60269;52.502;16.732;2023-06-22T11:38:33;6.60;;;4.85;;
72319;SDS011;60269;52.502;16.732;2023-06-22T11:42:05;8.50;;;4.63;;
72319;SDS011;60269;52.502;16.732;2023-06-22T11:45:40;7.75;;;4.82;;
72319;SDS011;60269;52.502;16.732;2023-06-22T11:49:12;7.95;;;4.82;;
72319;SDS011;60269;52.502;16.732;2023-06-22T11:52:44;6.57;;;4.47;;
72319;SDS011;60269;52.502;16.732;2023-06-22T11:56:16;8.60;;;4.25;;
72319;SDS011;60269;52.502;16.732;2023-06-22T11:59:48;7.93;;;4.45;;
72319;SDS011;60269;52.502;16.732;2023-06-22T12:03:20;7.03;;;5.57;;
72319;SDS011;60269;52.502;16.732;2023-06-22T12:06:55;7.80;;;5.13;;
72319;SDS011;60269;52.502;16.732;2023-06-22T12:10:28;7.00;;;5.60;;
72319;SDS011;60269;52.502;16.732;2023-06-22T12:14:03;7.35;;;4.78;;
72319;SDS011;60269;52.502;16.732;2023-06-22T12:17:35;8.27;;;5.43;;
72319;SDS011;60269;52.502;16.732;2023-06-22T12:21:08;6.82;;;4.80;;
72319;SDS011;60269;52.502;16.732;2023-06-22T12:24:40;7.47;;;5.15;;
72319;SDS011;60269;52.502;16.732;2023-06-22T12:28:13;6.67;;;3.90;;
72319;SDS011;60269;52.502;16.732;2023-06-22T12:31:45;6.50;;;4.63;;
72319;SDS011;60269;52.502;16.732;2023-06-22T12:35:17;6.72;;;5.30;;
72319;SDS011;60269;52.502;16.732;2023-06-22T12:38:49;8.13;;;5.70;;
72319;SDS011;60269;52.502;16.732;2023-06-22T12:42:24;6.80;;;4.47;;
72319;SDS011;60269;52.502;16.732;2023-06-22T12:45:58;6.55;;;4.47;;
72319;SDS011;60269;52.502;16.732;2023-06-22T12:49:30;6.10;;;4.30;;
72319;SDS011;60269;52.502;16.732;2023-06-22T12:53:02;6.03;;;4.17;;
72319;SDS011;60269;52.502;16.732;2023-06-22T12:56:36;7.38;;;4.63;;
72319;SDS011;60269;52.502;16.732;2023-06-22T13:00:09;7.82;;;4.43;;
72319;SDS011;60269;52.502;16.732;2023-06-22T13:03:44;7.17;;;5.40;;
72319;SDS011;60269;52.502;16.732;2023-06-22T13:07:16;8.05;;;5.03;;
72319;SDS011;60269;52.502;16.732;2023-06-22T13:10:54;6.82;;;4.75;;
72319;SDS011;60269;52.502;16.732;2023-06-22T13:14:28;6.47;;;4.20;;
72319;SDS011;60269;52.502;16.732;2023-06-22T13:18:00;8.77;;;4.90;;
72319;SDS011;60269;52.502;16.732;2023-06-22T13:21:32;7.85;;;4.80;;
72319;SDS011;60269;52.502;16.732;2023-06-22T13:25:05;6.68;;;5.05;;
72319;SDS011;60269;52.502;16.732;2023-06-22T13:28:38;7.47;;;4.40;;
72319;SDS011;60269;52.502;16.732;2023-06-22T13:32:10;8.82;;;4.57;;
72319;SDS011;60269;52.502;16.732;2023-06-22T13:35:42;7.15;;;4.15;;
72319;SDS011;60269;52.502;16.732;2023-06-22T13:39:14;7.27;;;4.40;;
72319;SDS011;60269;52.502;16.732;2023-06-22T13:42:46;7.63;;;4.57;;
72319;SDS011;60269;52.502;16.732;2023-06-22T13:46:19;6.07;;;4.75;;
72319;SDS011;60269;52.502;16.732;2023-06-22T13:49:50;6.43;;;5.25;;
72319;SDS011;60269;52.502;16.732;2023-06-22T13:53:25;7.27;;;4.90;;
72319;SDS011;60269;52.502;16.732;2023-06-22T13:56:58;7.20;;;4.53;;
72319;SDS011;60269;52.502;16.732;2023-06-22T14:00:30;7.45;;;4.05;;
72319;SDS011;60269;52.502;16.732;2023-06-22T14:04:03;7.30;;;4.17;;
72319;SDS011;60269;52.502;16.732;2023-06-22T14:07:35;7.07;;;4.47;;
72319;SDS011;60269;52.502;16.732;2023-06-22T14:11:08;7.20;;;4.78;;
72319;SDS011;60269;52.502;16.732;2023-06-22T14:14:41;6.73;;;5.73;;
72319;SDS011;60269;52.502;16.732;2023-06-22T14:18:14;7.55;;;4.85;;
72319;SDS011;60269;52.502;16.732;2023-06-22T14:21:46;6.65;;;4.80;;
72319;SDS011;60269;52.502;16.732;2023-06-22T14:25:18;9.07;;;5.88;;
72319;SDS011;60269;52.502;16.732;2023-06-22T14:28:51;6.87;;;5.50;;
72319;SDS011;60269;52.502;16.732;2023-06-22T14:32:24;7.20;;;5.25;;
72319;SDS011;60269;52.502;16.732;2023-06-22T14:36:01;6.60;;;5.10;;
72319;SDS011;60269;52.502;16.732;2023-06-22T14:39:33;8.33;;;5.57;;
72319;SDS011;60269;52.502;16.732;2023-06-22T14:43:06;8.50;;;4.70;;
72319;SDS011;60269;52.502;16.732;2023-06-22T14:46:37;6.82;;;4.90;;
72319;SDS011;60269;52.502;16.732;2023-06-22T14:50:10;8.43;;;5.33;;
72319;SDS011;60269;52.502;16.732;2023-06-22T14:53:43;6.97;;;4.85;;
72319;SDS011;60269;52.502;16.732;2023-06-22T14:57:16;6.93;;;5.80;;
72319;SDS011;60269;52.502;16.732;2023-06-22T15:00:51;7.05;;;5.97;;
72319;SDS011;60269;52.502;16.732;2023-06-22T15:04:23;7.30;;;5.47;;
72319;SDS011;60269;52.502;16.732;2023-06-22T15:07:56;7.57;;;5.05;;
72319;SDS011;60269;52.502;16.732;2023-06-22T15:11:28;8.32;;;4.70;;
72319;SDS011;60269;52.502;16.732;2023-06-22T15:15:00;5.73;;;4.27;;
72319;SDS011;60269;52.502;16.732;2023-06-22T15:18:32;6.63;;;3.78;;
72319;SDS011;60269;52.502;16.732;2023-06-22T15:22:07;7.00;;;4.93;;
72319;SDS011;60269;52.502;16.732;2023-06-22T15:25:39;6.73;;;4.30;;
72319;SDS011;60269;52.502;16.732;2023-06-22T15:29:13;7.20;;;4.25;;
72319;SDS011;60269;52.502;16.732;2023-06-22T15:32:45;6.55;;;4.45;;
72319;SDS011;60269;52.502;16.732;2023-06-22T15:36:20;8.05;;;5.05;;
72319;SDS011;60269;52.502;16.732;2023-06-22T15:39:53;6.30;;;4.10;;
72319;SDS011;60269;52.502;16.732;2023-06-22T15:43:25;8.05;;;5.85;;
72319;SDS011;60269;52.502;16.732;2023-06-22T15:46:57;10.73;;;4.80;;
72319;SDS011;60269;52.502;16.732;2023-06-22T15:50:29;7.33;;;4.70;;
72319;SDS011;60269;52.502;16.732;2023-06-22T15:54:01;7.47;;;4.35;;
72319;SDS011;60269;52.502;16.732;2023-06-22T15:57:34;8.73;;;5.55;;
72319;SDS011;60269;52.502;16.732;2023-06-22T16:01:06;6.43;;;5.20;;
72319;SDS011;60269;52.502;16.732;2023-06-22T16:04:38;6.60;;;4.35;;
72319;SDS011;60269;52.502;16.732;2023-06-22T16:08:10;6.38;;;4.82;;
72319;SDS011;60269;52.502;16.732;2023-06-22T16:11:46;7.03;;;4.82;;
72319;SDS011;60269;52.502;16.732;2023-06-22T16:15:17;7.07;;;4.53;;
72319;SDS011;60269;52.502;16.732;2023-06-22T16:18:50;6.72;;;4.82;;
72319;SDS011;60269;52.502;16.732;2023-06-22T16:22:23;6.53;;;5.05;;
72319;SDS011;60269;52.502;16.732;2023-06-22T16:25:55;5.90;;;4.00;;
72319;SDS011;60269;52.502;16.732;2023-06-22T16:29:28;8.70;;;5.28;;
72319;SDS011;60269;52.502;16.732;2023-06-22T16:33:00;6.13;;;4.25;;
72319;SDS011;60269;52.502;16.732;2023-06-22T16:36:34;7.40;;;4.83;;
72319;SDS011;60269;52.502;16.732;2023-06-22T16:40:06;6.68;;;4.45;;
72319;SDS011;60269;52.502;16.732;2023-06-22T16:43:41;6.85;;;5.38;;
72319;SDS011;60269;52.502;16.732;2023-06-22T16:47:14;7.22;;;5.28;;
72319;SDS011;60269;52.502;16.732;2023-06-22T16:50:46;6.47;;;5.23;;
72319;SDS011;60269;52.502;16.732;2023-06-22T16:54:18;6.85;;;4.55;;
72319;SDS011;60269;52.502;16.732;2023-06-22T16:57:51;7.28;;;5.07;;
72319;SDS011;60269;52.502;16.732;2023-06-22T17:01:25;6.60;;;5.13;;
72319;SDS011;60269;52.502;16.732;2023-06-22T17:04:58;7.25;;;6.10;;
72319;SDS011;60269;52.502;16.732;2023-06-22T17:08:30;7.22;;;4.47;;
72319;SDS011;60269;52.502;16.732;2023-06-22T17:12:06;7.97;;;5.07;;
72319;SDS011;60269;52.502;16.732;2023-06-22T17:15:38;6.03;;;3.97;;
72319;SDS011;60269;52.502;16.732;2023-06-22T17:19:12;6.45;;;4.28;;
72319;SDS011;60269;52.502;16.732;2023-06-22T17:22:45;6.60;;;4.65;;
72319;SDS011;60269;52.502;16.732;2023-06-22T17:26:17;6.70;;;4.57;;
72319;SDS011;60269;52.502;16.732;2023-06-22T17:29:49;6.35;;;4.45;;
72319;SDS011;60269;52.502;16.732;2023-06-22T17:33:36;6.47;;;4.28;;
72319;SDS011;60269;52.502;16.732;2023-06-22T17:37:12;8.30;;;4.33;;
72319;SDS011;60269;52.502;16.732;2023-06-22T17:40:43;7.63;;;4.25;;
72319;SDS011;60269;52.502;16.732;2023-06-22T17:44:19;7.65;;;5.03;;
72319;SDS011;60269;52.502;16.732;2023-06-22T17:47:55;6.10;;;4.00;;
72319;SDS011;60269;52.502;16.732;2023-06-22T17:51:27;8.48;;;4.57;;
72319;SDS011;60269;52.502;16.732;2023-06-22T17:55:01;7.53;;;4.28;;
72319;SDS011;60269;52.502;16.732;2023-06-22T17:58:39;5.82;;;3.30;;
72319;SDS011;60269;52.502;16.732;2023-06-22T18:02:12;7.87;;;4.20;;
72319;SDS011;60269;52.502;16.732;2023-06-22T18:05:46;8.13;;;3.65;;
72319;SDS011;60269;52.502;16.732;2023-06-22T18:09:18;6.63;;;3.40;;
72319;SDS011;60269;52.502;16.732;2023-06-22T18:12:51;7.90;;;4.47;;
72319;SDS011;60269;52.502;16.732;2023-06-22T18:16:24;11.90;;;5.20;;
72319;SDS011;60269;52.502;16.732;2023-06-22T18:19:57;10.32;;;4.65;;
72319;SDS011;60269;52.502;16.732;2023-06-22T18:23:31;7.95;;;4.13;;
72319;SDS011;60269;52.502;16.732;2023-06-22T18:27:08;7.13;;;4.20;;
72319;SDS011;60269;52.502;16.732;2023-06-22T18:30:42;7.18;;;3.75;;
72319;SDS011;60269;52.502;16.732;2023-06-22T18:34:14;6.95;;;3.25;;
72319;SDS011;60269;52.502;16.732;2023-06-22T18:37:46;7.87;;;3.57;;
72319;SDS011;60269;52.502;16.732;2023-06-22T18:41:41;7.67;;;3.43;;
72319;SDS011;60269;52.502;16.732;2023-06-22T18:45:25;7.13;;;3.33;;
72319;SDS011;60269;52.502;16.732;2023-06-22T18:49:01;10.20;;;3.00;;
72319;SDS011;60269;52.502;16.732;2023-06-22T18:52:40;8.57;;;3.13;;
72319;SDS011;60269;52.502;16.732;2023-06-22T18:56:14;7.40;;;3.13;;
72319;SDS011;60269;52.502;16.732;2023-06-22T18:59:47;9.25;;;3.20;;
72319;SDS011;60269;52.502;16.732;2023-06-22T19:03:29;9.45;;;3.20;;
72319;SDS011;60269;52.502;16.732;2023-06-22T19:07:03;8.13;;;3.17;;
72319;SDS011;60269;52.502;16.732;2023-06-22T19:10:40;9.43;;;3.13;;
72319;SDS011;60269;52.502;16.732;2023-06-22T19:14:18;8.88;;;3.60;;
72319;SDS011;60269;52.502;16.732;2023-06-22T19:17:52;7.28;;;3.53;;
72319;SDS011;60269;52.502;16.732;2023-06-22T19:21:25;8.53;;;3.67;;
72319;SDS011;60269;52.502;16.732;2023-06-22T19:24:57;8.83;;;3.00;;
72319;SDS011;60269;52.502;16.732;2023-06-22T19:28:31;8.88;;;3.50;;
72319;SDS011;60269;52.502;16.732;2023-06-22T19:32:04;8.38;;;3.63;;
72319;SDS011;60269;52.502;16.732;2023-06-22T19:35:37;8.37;;;3.33;;
72319;SDS011;60269;52.502;16.732;2023-06-22T19:39:10;11.33;;;3.50;;
72319;SDS011;60269;52.502;16.732;2023-06-22T19:42:45;8.77;;;2.92;;
72319;SDS011;60269;52.502;16.732;2023-06-22T19:46:18;7.82;;;2.42;;
72319;SDS011;60269;52.502;16.732;2023-06-22T19:49:59;8.40;;;3.33;;
72319;SDS011;60269;52.502;16.732;2023-06-22T19:53:33;6.93;;;3.20;;
72319;SDS011;60269;52.502;16.732;2023-06-22T19:57:05;7.22;;;2.78;;
72319;SDS011;60269;52.502;16.732;2023-06-22T20:00:38;6.32;;;2.58;;
72319;SDS011;60269;52.502;16.732;2023-06-22T20:04:12;7.33;;;2.97;;
72319;SDS011;60269;52.502;16.732;2023-06-22T20:07:44;8.97;;;3.20;;
72319;SDS011;60269;52.502;16.732;2023-06-22T20:11:23;9.38;;;3.42;;
72319;SDS011;60269;52.502;16.732;2023-06-22T20:15:12;9.07;;;2.97;;
72319;SDS011;60269;52.502;16.732;2023-06-22T20:18:45;9.43;;;2.90;;
72319;SDS011;60269;52.502;16.732;2023-06-22T20:22:17;7.90;;;2.70;;
72319;SDS011;60269;52.502;16.732;2023-06-22T20:25:50;10.05;;;3.40;;
72319;SDS011;60269;52.502;16.732;2023-06-22T20:33:02;8.80;;;3.58;;
72319;SDS011;60269;52.502;16.732;2023-06-22T20:36:37;8.77;;;3.73;;
72319;SDS011;60269;52.502;16.732;2023-06-22T20:40:10;9.32;;;3.45;;
72319;SDS011;60269;52.502;16.732;2023-06-22T20:43:43;7.68;;;3.35;;
72319;SDS011;60269;52.502;16.732;2023-06-22T20:47:15;9.30;;;4.03;;
72319;SDS011;60269;52.502;16.732;2023-06-22T20:50:48;9.87;;;3.17;;
72319;SDS011;60269;52.502;16.732;2023-06-22T20:54:20;7.78;;;3.33;;
72319;SDS011;60269;52.502;16.732;2023-06-22T20:57:52;10.60;;;3.33;;
72319;SDS011;60269;52.502;16.732;2023-06-22T21:01:26;10.07;;;4.20;;
72319;SDS011;60269;52.502;16.732;2023-06-22T21:05:04;7.73;;;3.07;;